sensor_id;sensor_type;location;lat;lon;timestamp;temperature;humidity
65536;DHT22;52145;49.342;9.116;2022-10-16T00:00:56;15.90;99.90
65536;DHT22;52145;49.342;9.116;2022-10-16T00:03:22;15.90;99.90
65536;DHT22;52145;49.342;9.116;2022-10-16T00:05:48;15.80;99.90
65536;DHT22;52145;49.342;9.116;2022-10-16T00:08:14;15.90;99.90
65536;DHT22;52145;49.342;9.116;2022-10-16T00:10:40;15.80;99.90
65536;DHT22;52145;49.342;9.116;2022-10-16T00:13:05;15.80;99.90
65536;DHT22;52145;49.342;9.116;2022-10-16T10:19:57;22.80;99.90
65536;DHT22;52145;49.342;9.116;2022-10-16T10:27:50;23.80;99.90
65536;DHT22;52145;49.342;9.116;2022-10-16T10:35:56;23.60;99.90
65536;DHT22;52145;49.342;9.116;2022-10-16T10:38:45;24.30;99.90
65536;DHT22;52145;49.342;9.116;2022-10-16T10:44:04;24.90;99.90
65536;DHT22;52145;49.342;9.116;2022-10-16T10:46:57;25.80;98.80
65536;DHT22;52145;49.342;9.116;2022-10-16T10:58:29;26.50;96.60
65536;DHT22;52145;49.342;9.116;2022-10-16T11:01:09;26.70;96.20
65536;DHT22;52145;49.342;9.116;2022-10-16T11:03:46;26.50;94.70
65536;DHT22;52145;49.342;9.116;2022-10-16T11:06:24;26.60;94.40
65536;DHT22;52145;49.342;9.116;2022-10-16T11:09:11;26.40;94.90
65536;DHT22;52145;49.342;9.116;2022-10-16T11:11:54;26.80;94.70
65536;DHT22;52145;49.342;9.116;2022-10-16T11:14:45;27.00;93.80
65536;DHT22;52145;49.342;9.116;2022-10-16T11:17:18;28.60;93.10
65536;DHT22;52145;49.342;9.116;2022-10-16T11:27:38;29.30;88.80
65536;DHT22;52145;49.342;9.116;2022-10-16T11:30:12;28.80;89.00
65536;DHT22;52145;49.342;9.116;2022-10-16T11:35:50;28.70;91.50
65536;DHT22;52145;49.342;9.116;2022-10-16T11:49:31;30.00;86.60
65536;DHT22;52145;49.342;9.116;2022-10-16T11:54:53;30.20;85.20
65536;DHT22;52145;49.342;9.116;2022-10-16T11:57:24;30.40;86.30
65536;DHT22;52145;49.342;9.116;2022-10-16T12:08:13;30.60;84.10
65536;DHT22;52145;49.342;9.116;2022-10-16T12:10:43;29.50;82.30
65536;DHT22;52145;49.342;9.116;2022-10-16T12:13:31;30.50;82.20
65536;DHT22;52145;49.342;9.116;2022-10-16T12:18:43;30.00;80.60
65536;DHT22;52145;49.342;9.116;2022-10-16T12:21:11;30.70;80.00
65536;DHT22;52145;49.342;9.116;2022-10-16T12:23:50;30.50;82.20
65536;DHT22;52145;49.342;9.116;2022-10-16T12:26:31;29.50;79.90
65536;DHT22;52145;49.342;9.116;2022-10-16T12:29:22;27.60;84.20
65536;DHT22;52145;49.342;9.116;2022-10-16T12:31:49;27.50;85.80
65536;DHT22;52145;49.342;9.116;2022-10-16T12:34:41;27.30;85.90
65536;DHT22;52145;49.342;9.116;2022-10-16T12:37:10;26.90;85.50
65536;DHT22;52145;49.342;9.116;2022-10-16T12:39:36;27.10;85.90
65536;DHT22;52145;49.342;9.116;2022-10-16T12:42:06;27.90;84.50
65536;DHT22;52145;49.342;9.116;2022-10-16T12:44:33;27.90;84.60
65536;DHT22;52145;49.342;9.116;2022-10-16T12:47:00;27.40;84.10
65536;DHT22;52145;49.342;9.116;2022-10-16T12:49:34;27.70;84.70
65536;DHT22;52145;49.342;9.116;2022-10-16T12:52:00;27.70;84.00
65536;DHT22;52145;49.342;9.116;2022-10-16T12:54:37;27.70;84.40
65536;DHT22;52145;49.342;9.116;2022-10-16T13:05:52;26.00;88.40
65536;DHT22;52145;49.342;9.116;2022-10-16T13:19:43;25.80;88.90
65536;DHT22;52145;49.342;9.116;2022-10-16T13:27:29;25.50;90.40
65536;DHT22;52145;49.342;9.116;2022-10-16T13:30:15;24.90;91.80
65536;DHT22;52145;49.342;9.116;2022-10-16T13:32:48;24.30;92.60
65536;DHT22;52145;49.342;9.116;2022-10-16T13:35:19;24.50;92.50
65536;DHT22;52145;49.342;9.116;2022-10-16T13:37:45;24.30;93.10
65536;DHT22;52145;49.342;9.116;2022-10-16T13:40:23;24.30;92.80
65536;DHT22;52145;49.342;9.116;2022-10-16T13:42:50;24.00;92.70
65536;DHT22;52145;49.342;9.116;2022-10-16T13:45:23;24.00;93.10
65536;DHT22;52145;49.342;9.116;2022-10-16T13:48:00;23.90;92.90
65536;DHT22;52145;49.342;9.116;2022-10-16T13:50:26;23.90;92.70
65536;DHT22;52145;49.342;9.116;2022-10-16T13:52:51;23.80;93.50
65536;DHT22;52145;49.342;9.116;2022-10-16T13:55:18;23.50;93.50
65536;DHT22;52145;49.342;9.116;2022-10-16T13:57:44;23.30;93.60
65536;DHT22;52145;49.342;9.116;2022-10-16T14:00:25;23.20;94.00
65536;DHT22;52145;49.342;9.116;2022-10-16T14:03:15;23.20;95.10
65536;DHT22;52145;49.342;9.116;2022-10-16T14:05:49;23.20;96.70
65536;DHT22;52145;49.342;9.116;2022-10-16T14:08:16;23.10;97.20
65536;DHT22;52145;49.342;9.116;2022-10-16T14:10:43;22.90;97.90
65536;DHT22;52145;49.342;9.116;2022-10-16T14:13:17;22.70;97.60
65536;DHT22;52145;49.342;9.116;2022-10-16T14:15:47;22.60;98.50
65536;DHT22;52145;49.342;9.116;2022-10-16T14:18:20;22.40;99.00
65536;DHT22;52145;49.342;9.116;2022-10-16T14:20:47;22.30;99.40
65536;DHT22;52145;49.342;9.116;2022-10-16T14:23:29;22.20;99.90
65536;DHT22;52145;49.342;9.116;2022-10-16T14:26:06;22.10;99.90
65536;DHT22;52145;49.342;9.116;2022-10-16T14:28:39;22.00;99.90
65536;DHT22;52145;49.342;9.116;2022-10-16T14:31:25;22.00;99.90
65536;DHT22;52145;49.342;9.116;2022-10-16T14:33:51;21.90;99.90
65536;DHT22;52145;49.342;9.116;2022-10-16T14:36:17;21.90;99.90
65536;DHT22;52145;49.342;9.116;2022-10-16T14:41:21;21.70;99.90
65536;DHT22;52145;49.342;9.116;2022-10-16T14:43:54;21.60;99.90
65536;DHT22;52145;49.342;9.116;2022-10-16T14:46:27;21.40;99.90
65536;DHT22;52145;49.342;9.116;2022-10-16T14:49:00;21.30;99.90
65536;DHT22;52145;49.342;9.116;2022-10-16T14:51:26;21.20;99.90
65536;DHT22;52145;49.342;9.116;2022-10-16T14:53:52;21.20;99.90
65536;DHT22;52145;49.342;9.116;2022-10-16T14:56:26;21.20;99.90
65536;DHT22;52145;49.342;9.116;2022-10-16T14:58:54;21.10;99.90
65536;DHT22;52145;49.342;9.116;2022-10-16T15:01:20;21.10;99.90
65536;DHT22;52145;49.342;9.116;2022-10-16T15:03:46;21.00;99.90
65536;DHT22;52145;49.342;9.116;2022-10-16T15:06:13;21.00;99.90
65536;DHT22;52145;49.342;9.116;2022-10-16T15:08:39;21.00;99.90
65536;DHT22;52145;49.342;9.116;2022-10-16T15:11:17;20.80;99.90
65536;DHT22;52145;49.342;9.116;2022-10-16T15:13:43;20.70;99.90
65536;DHT22;52145;49.342;9.116;2022-10-16T15:16:12;20.60;99.90
65536;DHT22;52145;49.342;9.116;2022-10-16T15:18:37;20.60;99.90
65536;DHT22;52145;49.342;9.116;2022-10-16T15:21:03;20.70;99.90
65536;DHT22;52145;49.342;9.116;2022-10-16T15:23:29;20.70;99.90
65536;DHT22;52145;49.342;9.116;2022-10-16T15:25:55;20.90;99.90
65536;DHT22;52145;49.342;9.116;2022-10-16T15:28:22;20.90;99.90
65536;DHT22;52145;49.342;9.116;2022-10-16T15:30:50;21.30;99.90
65536;DHT22;52145;49.342;9.116;2022-10-16T15:33:19;21.50;99.90
65536;DHT22;52145;49.342;9.116;2022-10-16T15:35:52;21.50;99.90
65536;DHT22;52145;49.342;9.116;2022-10-16T15:38:19;21.70;99.90
65536;DHT22;52145;49.342;9.116;2022-10-16T15:40:46;21.70;99.90
65536;DHT22;52145;49.342;9.116;2022-10-16T15:43:12;21.70;99.90
65536;DHT22;52145;49.342;9.116;2022-10-16T15:45:38;21.70;99.90
65536;DHT22;52145;49.342;9.116;2022-10-16T15:48:03;21.80;99.90
65536;DHT22;52145;49.342;9.116;2022-10-16T15:50:30;21.70;99.90
65536;DHT22;52145;49.342;9.116;2022-10-16T15:52:56;21.10;99.90
65536;DHT22;52145;49.342;9.116;2022-10-16T15:55:21;21.00;99.90
65536;DHT22;52145;49.342;9.116;2022-10-16T15:57:47;20.80;99.90
65536;DHT22;52145;49.342;9.116;2022-10-16T16:00:14;20.60;99.90
65536;DHT22;52145;49.342;9.116;2022-10-16T16:02:41;20.50;99.90
65536;DHT22;52145;49.342;9.116;2022-10-16T16:05:08;20.30;99.90
65536;DHT22;52145;49.342;9.116;2022-10-16T16:07:35;20.20;99.90
65536;DHT22;52145;49.342;9.116;2022-10-16T16:10:01;20.10;99.90
65536;DHT22;52145;49.342;9.116;2022-10-16T16:12:26;20.00;99.90
65536;DHT22;52145;49.342;9.116;2022-10-16T16:14:52;19.80;99.90
65536;DHT22;52145;49.342;9.116;2022-10-16T16:17:17;19.80;99.90
65536;DHT22;52145;49.342;9.116;2022-10-16T16:19:43;19.70;99.90
65536;DHT22;52145;49.342;9.116;2022-10-16T16:22:09;19.70;99.90
65536;DHT22;52145;49.342;9.116;2022-10-16T16:24:34;19.50;99.90
65536;DHT22;52145;49.342;9.116;2022-10-16T16:27:00;19.50;99.90
65536;DHT22;52145;49.342;9.116;2022-10-16T16:29:25;19.40;99.90
65536;DHT22;52145;49.342;9.116;2022-10-16T16:31:51;19.30;99.90
65536;DHT22;52145;49.342;9.116;2022-10-16T16:34:23;19.20;99.90
65536;DHT22;52145;49.342;9.116;2022-10-16T16:36:49;19.10;99.90
65536;DHT22;52145;49.342;9.116;2022-10-16T16:39:14;19.00;99.90
65536;DHT22;52145;49.342;9.116;2022-10-16T16:41:40;19.00;99.90
65536;DHT22;52145;49.342;9.116;2022-10-16T16:44:08;18.90;99.90
65536;DHT22;52145;49.342;9.116;2022-10-16T16:46:34;18.90;99.90
65536;DHT22;52145;49.342;9.116;2022-10-16T16:49:00;18.80;99.90
65536;DHT22;52145;49.342;9.116;2022-10-16T16:51:26;18.70;99.90
65536;DHT22;52145;49.342;9.116;2022-10-16T16:53:53;18.60;99.90
65536;DHT22;52145;49.342;9.116;2022-10-16T16:56:20;18.50;99.90
65536;DHT22;52145;49.342;9.116;2022-10-16T16:58:46;18.30;99.90
65536;DHT22;52145;49.342;9.116;2022-10-16T17:01:12;18.20;99.90
65536;DHT22;52145;49.342;9.116;2022-10-16T17:03:37;18.20;99.90
65536;DHT22;52145;49.342;9.116;2022-10-16T17:06:05;18.10;99.90
65536;DHT22;52145;49.342;9.116;2022-10-16T17:08:32;18.00;99.90
65536;DHT22;52145;49.342;9.116;2022-10-16T17:10:58;18.00;99.90
65536;DHT22;52145;49.342;9.116;2022-10-16T17:13:25;17.90;99.90
65536;DHT22;52145;49.342;9.116;2022-10-16T17:15:51;18.00;99.90
65536;DHT22;52145;49.342;9.116;2022-10-16T17:18:18;18.00;99.90
65536;DHT22;52145;49.342;9.116;2022-10-16T17:20:44;17.90;99.90
65536;DHT22;52145;49.342;9.116;2022-10-16T17:23:11;17.90;99.90
65536;DHT22;52145;49.342;9.116;2022-10-16T17:25:38;17.90;99.90
65536;DHT22;52145;49.342;9.116;2022-10-16T17:28:04;17.90;99.90
65536;DHT22;52145;49.342;9.116;2022-10-16T17:30:29;17.90;99.90
65536;DHT22;52145;49.342;9.116;2022-10-16T17:32:55;17.70;99.90
65536;DHT22;52145;49.342;9.116;2022-10-16T17:35:20;17.60;99.90
65536;DHT22;52145;49.342;9.116;2022-10-16T17:37:46;17.70;99.90
65536;DHT22;52145;49.342;9.116;2022-10-16T17:40:12;17.50;99.90
65536;DHT22;52145;49.342;9.116;2022-10-16T17:42:37;17.30;99.90
65536;DHT22;52145;49.342;9.116;2022-10-16T17:45:03;17.10;99.90
65536;DHT22;52145;49.342;9.116;2022-10-16T17:47:29;17.00;99.90
65536;DHT22;52145;49.342;9.116;2022-10-16T17:49:54;16.90;99.90
65536;DHT22;52145;49.342;9.116;2022-10-16T17:52:21;16.80;99.90
65536;DHT22;52145;49.342;9.116;2022-10-16T17:54:49;16.80;99.90
65536;DHT22;52145;49.342;9.116;2022-10-16T17:57:16;16.70;99.90
65536;DHT22;52145;49.342;9.116;2022-10-16T17:59:42;16.70;99.90
65536;DHT22;52145;49.342;9.116;2022-10-16T18:02:09;16.60;99.90
65536;DHT22;52145;49.342;9.116;2022-10-16T18:04:35;16.60;99.90
65536;DHT22;52145;49.342;9.116;2022-10-16T18:07:00;16.60;99.90
65536;DHT22;52145;49.342;9.116;2022-10-16T18:09:26;16.50;99.90
65536;DHT22;52145;49.342;9.116;2022-10-16T18:11:53;16.40;99.90
65536;DHT22;52145;49.342;9.116;2022-10-16T18:14:28;16.40;99.90
65536;DHT22;52145;49.342;9.116;2022-10-16T18:16:54;16.40;99.90
65536;DHT22;52145;49.342;9.116;2022-10-16T18:19:20;16.40;99.90
65536;DHT22;52145;49.342;9.116;2022-10-16T18:21:46;16.30;99.90
65536;DHT22;52145;49.342;9.116;2022-10-16T18:24:14;16.40;99.90
65536;DHT22;52145;49.342;9.116;2022-10-16T18:26:40;16.30;99.90
65536;DHT22;52145;49.342;9.116;2022-10-16T18:29:06;16.30;99.90
65536;DHT22;52145;49.342;9.116;2022-10-16T18:31:32;16.20;99.90
65536;DHT22;52145;49.342;9.116;2022-10-16T18:33:58;16.30;99.90
65536;DHT22;52145;49.342;9.116;2022-10-16T18:36:27;16.20;99.90
65536;DHT22;52145;49.342;9.116;2022-10-16T18:38:58;16.20;99.90
65536;DHT22;52145;49.342;9.116;2022-10-16T18:41:24;16.20;99.90
65536;DHT22;52145;49.342;9.116;2022-10-16T18:43:51;16.10;99.90
65536;DHT22;52145;49.342;9.116;2022-10-16T18:46:21;16.10;99.90
65536;DHT22;52145;49.342;9.116;2022-10-16T18:48:48;16.10;99.90
65536;DHT22;52145;49.342;9.116;2022-10-16T18:51:23;16.10;99.90
65536;DHT22;52145;49.342;9.116;2022-10-16T18:53:51;16.00;99.90
65536;DHT22;52145;49.342;9.116;2022-10-16T18:56:19;15.90;99.90
65536;DHT22;52145;49.342;9.116;2022-10-16T18:58:45;15.80;99.90
65536;DHT22;52145;49.342;9.116;2022-10-16T19:01:15;15.80;99.90
65536;DHT22;52145;49.342;9.116;2022-10-16T19:03:41;15.80;99.90
65536;DHT22;52145;49.342;9.116;2022-10-16T19:06:09;15.80;99.90
65536;DHT22;52145;49.342;9.116;2022-10-16T19:08:36;15.70;99.90
65536;DHT22;52145;49.342;9.116;2022-10-16T19:11:09;15.70;99.90
65536;DHT22;52145;49.342;9.116;2022-10-16T19:13:35;15.60;99.90
65536;DHT22;52145;49.342;9.116;2022-10-16T19:16:02;15.60;99.90
65536;DHT22;52145;49.342;9.116;2022-10-16T19:18:29;15.50;99.90
65536;DHT22;52145;49.342;9.116;2022-10-16T19:21:02;15.50;99.90
65536;DHT22;52145;49.342;9.116;2022-10-16T19:23:28;15.40;99.90
65536;DHT22;52145;49.342;9.116;2022-10-16T19:25:53;15.40;99.90
65536;DHT22;52145;49.342;9.116;2022-10-16T19:28:19;15.40;99.90
65536;DHT22;52145;49.342;9.116;2022-10-16T19:30:44;15.40;99.90
65536;DHT22;52145;49.342;9.116;2022-10-16T19:33:11;15.30;99.90
65536;DHT22;52145;49.342;9.116;2022-10-16T19:35:36;15.30;99.90
65536;DHT22;52145;49.342;9.116;2022-10-16T19:38:02;15.30;99.90
65536;DHT22;52145;49.342;9.116;2022-10-16T19:40:27;15.30;99.90
65536;DHT22;52145;49.342;9.116;2022-10-16T19:42:53;15.30;99.90
65536;DHT22;52145;49.342;9.116;2022-10-16T19:45:19;15.20;99.90
65536;DHT22;52145;49.342;9.116;2022-10-16T19:47:45;15.20;99.90
65536;DHT22;52145;49.342;9.116;2022-10-16T19:50:11;15.20;99.90
65536;DHT22;52145;49.342;9.116;2022-10-16T19:52:37;15.20;99.90
65536;DHT22;52145;49.342;9.116;2022-10-16T19:55:04;15.20;99.90
65536;DHT22;52145;49.342;9.116;2022-10-16T19:57:35;15.20;99.90
65536;DHT22;52145;49.342;9.116;2022-10-16T20:00:03;15.20;99.90
65536;DHT22;52145;49.342;9.116;2022-10-16T20:02:28;15.10;99.90
65536;DHT22;52145;49.342;9.116;2022-10-16T20:04:54;15.10;99.90
65536;DHT22;52145;49.342;9.116;2022-10-16T20:07:20;15.00;99.90
65536;DHT22;52145;49.342;9.116;2022-10-16T20:09:47;14.90;99.90
65536;DHT22;52145;49.342;9.116;2022-10-16T20:12:12;14.90;99.90
65536;DHT22;52145;49.342;9.116;2022-10-16T20:14:38;14.90;99.90
65536;DHT22;52145;49.342;9.116;2022-10-16T20:17:03;14.90;99.90
